Time;durP1;ratioP1;P1;durP2;ratioP2;P2;SDS_P1;SDS_P2;PMS_P1;PMS_P2;Temp;Humidity;BMP_temperature;BMP_pressure;BME280_temperature;BME280_humidity;BME280_pressure;Samples;Min_cycle;Max_cycle;Signal;HPM_P1;HPM_P2
2021/06/28 00:08:39;;;;;;;2.22;1.75;;;17.70;99.90;;;;;;20916622;28;20064;-81
2021/06/28 00:18:42;;;;;;;3.27;1.80;;;17.90;99.90;;;;;;20900817;28;20036;-81
2021/06/28 00:28:43;;;;;;;3.67;1.90;;;17.70;99.90;;;;;;20915528;28;20446;-82
2021/06/28 00:38:43;;;;;;;2.10;1.90;;;17.70;99.90;;;;;;21050328;22;20141;-78
2021/06/28 00:48:44;;;;;;;2.40;1.60;;;17.30;99.90;;;;;;21157820;28;20027;-78
2021/06/28 00:58:45;;;;;;;2.03;1.70;;;17.30;99.90;;;;;;21175032;28;20059;-78
2021/06/28 01:08:46;;;;;;;6.60;2.07;;;17.40;99.90;;;;;;21174826;28;20053;-78
2021/06/28 01:18:48;;;;;;;2.47;2.17;;;17.40;99.90;;;;;;21172889;28;20036;-78
2021/06/28 01:28:49;;;;;;;5.77;2.90;;;16.80;99.90;;;;;;21164584;28;20035;-77
2021/06/28 01:38:51;;;;;;;5.17;2.70;;;16.50;99.90;;;;;;21131529;28;20382;-77
2021/06/28 01:48:51;;;;;;;5.63;2.40;;;16.40;99.90;;;;;;21164402;28;20050;-77
2021/06/28 01:58:52;;;;;;;4.60;3.07;;;16.50;99.90;;;;;;21160941;28;20028;-77
2021/06/28 02:08:53;;;;;;;2.40;2.20;;;16.70;99.90;;;;;;21161947;28;20031;-78
2021/06/28 02:18:54;;;;;;;3.87;2.87;;;16.60;99.90;;;;;;21172705;28;20051;-77
2021/06/28 02:28:55;;;;;;;4.60;2.30;;;16.50;99.90;;;;;;21161661;28;20028;-76
2021/06/28 02:38:57;;;;;;;5.17;2.20;;;16.30;99.90;;;;;;21157638;28;20028;-77
2021/06/28 02:48:58;;;;;;;9.10;4.15;;;16.30;99.90;;;;;;21139705;28;20032;-77
2021/06/28 02:58:59;;;;;;;3.20;2.30;;;16.30;99.90;;;;;;21157481;28;20063;-76
2021/06/28 03:09:00;;;;;;;8.23;2.27;;;16.30;99.90;;;;;;21128922;28;20081;-76
2021/06/28 03:19:01;;;;;;;2.50;2.10;;;16.00;99.90;;;;;;21152897;28;20051;-75
2021/06/28 03:29:02;;;;;;;5.60;2.13;;;16.30;99.90;;;;;;21171580;28;20084;-77
2021/06/28 03:39:03;;;;;;;5.50;2.97;;;16.50;99.90;;;;;;21155758;28;20449;-78
2021/06/28 03:49:04;;;;;;;;;;;16.60;99.90;;;;;;21174674;28;20023;-77
2021/06/28 03:59:05;;;;;;;10.13;4.23;;;16.90;99.90;;;;;;21171171;28;19955;-77
2021/06/28 04:09:06;;;;;;;5.47;3.97;;;16.50;99.90;;;;;;21179164;28;20774;-77
2021/06/28 04:19:07;;;;;;;4.83;2.37;;;16.40;99.90;;;;;;21171334;28;20393;-78
2021/06/28 04:29:07;;;;;;;4.07;2.10;;;16.20;99.90;;;;;;21153155;28;20485;-77
2021/06/28 04:39:08;;;;;;;4.30;2.17;;;16.70;99.90;;;;;;21169238;28;20526;-78
2021/06/28 04:49:09;;;;;;;2.90;2.30;;;16.90;99.90;;;;;;21132277;28;20081;-78
2021/06/28 04:59:10;;;;;;;3.10;2.60;;;17.00;99.90;;;;;;21164863;28;20077;-77
2021/06/28 05:09:11;;;;;;;6.37;3.80;;;17.40;99.90;;;;;;21145747;28;20050;-76
2021/06/28 05:19:12;;;;;;;4.27;3.30;;;17.60;99.90;;;;;;21167215;28;20047;-78
2021/06/28 05:29:13;;;;;;;7.13;3.57;;;17.60;99.90;;;;;;21166395;28;20023;-78
2021/06/28 05:39:14;;;;;;;6.50;3.43;;;18.20;99.90;;;;;;21173542;28;20057;-79
2021/06/28 05:49:15;;;;;;;3.77;2.50;;;18.50;99.90;;;;;;21156091;28;20035;-80
2021/06/28 05:59:15;;;;;;;4.20;2.60;;;18.70;99.90;;;;;;21149951;28;20398;-80
2021/06/28 06:09:16;;;;;;;5.83;2.53;;;18.90;99.90;;;;;;21168247;28;20480;-80
2021/06/28 06:19:17;;;;;;;3.70;2.53;;;19.00;99.90;;;;;;21179603;28;20091;-80
2021/06/28 06:29:18;;;;;;;6.70;2.53;;;19.30;99.90;;;;;;21183745;28;20393;-79
2021/06/28 06:39:19;;;;;;;7.30;2.33;;;19.70;99.90;;;;;;21028227;22;20049;-77
2021/06/28 06:49:20;;;;;;;5.67;2.10;;;19.90;99.90;;;;;;21009506;28;20032;-76
2021/06/28 06:59:21;;;;;;;6.30;2.17;;;20.30;99.90;;;;;;21008982;28;20032;-76
2021/06/28 07:09:22;;;;;;;5.30;2.33;;;20.40;99.90;;;;;;20991031;28;20085;-77
2021/06/28 07:19:22;;;;;;;4.10;1.40;;;21.10;99.90;;;;;;21008090;28;20032;-77
2021/06/28 07:29:24;;;;;;;2.87;1.87;;;21.80;99.90;;;;;;20973057;28;20036;-77
2021/06/28 07:39:24;;;;;;;6.77;1.90;;;22.40;99.90;;;;;;20972242;28;20089;-76
2021/06/28 07:49:25;;;;;;;4.90;1.53;;;22.60;99.90;;;;;;20988655;28;20028;-77
2021/06/28 07:59:26;;;;;;;2.93;1.57;;;23.30;99.90;;;;;;20988850;28;20510;-76
2021/06/28 08:09:27;;;;;;;2.23;1.50;;;23.70;99.90;;;;;;21008874;28;20082;-77
2021/06/28 08:19:28;;;;;;;3.67;1.77;;;24.40;99.90;;;;;;20991352;28;20090;-76
2021/06/28 08:29:29;;;;;;;2.37;1.60;;;24.20;99.90;;;;;;20991809;28;20123;-76
2021/06/28 08:39:29;;;;;;;8.03;1.83;;;23.70;99.90;;;;;;21007027;28;20033;-77
2021/06/28 08:49:32;;;;;;;3.53;1.83;;;23.70;99.90;;;;;;21004419;28;20487;-76
2021/06/28 08:59:33;;;;;;;3.72;1.70;;;24.20;99.90;;;;;;21003676;28;20116;-76
2021/06/28 09:09:35;;;;;;;2.80;1.70;;;24.70;99.90;;;;;;20986177;28;20060;-76
2021/06/28 09:19:36;;;;;;;4.82;1.92;;;24.70;99.90;;;;;;20985100;28;20038;-76
2021/06/28 09:29:52;;;;;;;3.13;1.77;;;24.50;99.90;;;;;;20999038;28;20090;-76
2021/06/28 09:39:56;;;;;;;4.03;1.48;;;25.40;99.90;;;;;;20997734;28;20486;-76
2021/06/28 09:50:20;;;;;;;2.95;1.85;;;25.50;99.90;;;;;;20978031;28;20025;-76
2021/06/28 10:00:25;;;;;;;4.50;1.70;;;26.40;99.90;;;;;;20994294;28;20056;-75
2021/06/28 10:10:28;;;;;;;6.32;1.73;;;26.00;99.90;;;;;;20959692;28;20047;-76
2021/06/28 10:20:32;;;;;;;1.63;1.30;;;25.90;99.90;;;;;;20975021;28;20028;-75
2021/06/28 10:30:33;;;;;;;1.50;1.30;;;26.00;99.90;;;;;;20993324;28;20029;-74
2021/06/28 10:41:06;;;;;;;3.60;1.58;;;27.60;99.90;;;;;;20991127;28;20368;-75
2021/06/28 10:51:09;;;;;;;5.20;1.67;;;27.00;99.90;;;;;;20956974;28;20041;-76
2021/06/28 11:01:14;;;;;;;2.70;1.60;;;27.40;99.90;;;;;;20989071;28;20064;-76
2021/06/28 11:11:45;;;;;;;2.55;1.75;;;26.90;99.90;;;;;;20970873;28;20032;-77
2021/06/28 11:21:45;;;;;;;3.42;2.38;;;26.50;99.90;;;;;;20987998;28;20032;-76
2021/06/28 11:31:46;;;;;;;2.42;1.95;;;27.10;99.90;;;;;;20996402;28;20024;-77
2021/06/28 11:42:07;;;;;;;;;;;26.30;99.90;;;;;;21002919;28;20021;-76
2021/06/28 11:52:15;;;;;;;3.00;2.40;;;26.10;99.90;;;;;;21001647;28;20294;-77
2021/06/28 12:02:16;;;;;;;3.40;1.85;;;25.80;99.90;;;;;;20999677;28;20414;-76
2021/06/28 12:12:17;;;;;;;2.80;2.13;;;26.40;99.90;;;;;;20999219;28;20055;-76
2021/06/28 12:22:20;;;;;;;1.85;1.58;;;26.80;99.90;;;;;;20999521;28;20141;-76
2021/06/28 12:32:27;;;;;;;2.70;1.60;;;26.20;99.90;;;;;;20997780;28;20033;-77
2021/06/28 12:42:28;;;;;;;3.97;1.60;;;27.00;99.90;;;;;;21001543;28;20032;-74
2021/06/28 12:52:33;;;;;;;2.45;1.80;;;27.30;99.90;;;;;;20997206;28;20490;-74
2021/06/28 13:02:34;;;;;;;1.98;1.80;;;27.20;99.90;;;;;;20997901;28;20028;-76
2021/06/28 13:12:35;;;;;;;2.95;1.80;;;27.50;99.90;;;;;;20996007;28;20029;-75
2021/06/28 13:22:43;;;;;;;3.20;2.20;;;28.20;99.90;;;;;;20995115;28;20036;-76
2021/06/28 13:32:44;;;;;;;2.28;2.08;;;27.30;99.90;;;;;;20992315;28;20033;-75
2021/06/28 13:42:53;;;;;;;3.85;1.60;;;27.60;99.90;;;;;;20992212;28;20029;-75
2021/06/28 13:52:55;;;;;;;2.15;1.45;;;27.90;99.90;;;;;;20991404;28;20036;-76
2021/06/28 14:02:57;;;;;;;2.63;1.60;;;28.30;99.90;;;;;;20987294;28;20139;-75
2021/06/28 14:13:14;;;;;;;5.05;1.60;;;28.00;99.90;;;;;;20987904;28;20081;-74
2021/06/28 14:23:15;;;;;;;2.05;1.58;;;27.70;99.90;;;;;;20976644;28;20666;-75
2021/06/28 14:33:16;;;;;;;1.92;1.48;;;28.50;99.90;;;;;;20952295;28;20040;-75
2021/06/28 14:43:17;;;;;;;1.83;1.42;;;28.00;99.90;;;;;;20970011;28;20036;-75
2021/06/28 14:53:17;;;;;;;3.47;1.70;;;28.50;99.90;;;;;;20970606;28;20064;-76
2021/06/28 15:03:19;;;;;;;2.53;1.80;;;27.20;99.90;;;;;;20971833;28;20237;-75
2021/06/28 15:13:19;;;;;;;3.75;2.20;;;26.40;99.90;;;;;;20967915;28;20165;-75
2021/06/28 15:23:20;;;;;;;;;;;25.90;99.90;;;;;;20984830;28;20036;-75
2021/06/28 15:33:21;;;;;;;5.87;1.70;;;25.60;99.90;;;;;;20984208;28;19916;-75
2021/06/28 15:43:23;;;;;;;;;;;25.50;99.90;;;;;;20981339;28;20148;-75
2021/06/28 15:53:24;;;;;;;5.82;1.80;;;25.30;99.90;;;;;;20989007;28;20382;-75
2021/06/28 16:03:29;;;;;;;4.13;1.57;;;25.00;99.90;;;;;;20960735;28;20066;-75
2021/06/28 16:13:30;;;;;;;2.38;1.52;;;24.10;99.90;;;;;;20977480;28;20309;-74
2021/06/28 16:23:31;;;;;;;3.30;1.70;;;23.60;99.90;;;;;;20978338;28;20028;-74
2021/06/28 16:33:32;;;;;;;2.53;1.50;;;21.20;99.90;;;;;;20978352;28;20039;-73
2021/06/28 16:43:33;;;;;;;5.63;1.77;;;20.30;99.90;;;;;;20979652;28;20043;-76
2021/06/28 16:53:33;;;;;;;5.03;2.27;;;19.80;99.90;;;;;;20984643;28;20514;-77
2021/06/28 17:03:35;;;;;;;2.70;2.37;;;18.90;99.90;;;;;;20976949;28;20033;-77
2021/06/28 17:13:36;;;;;;;3.43;2.40;;;18.10;99.90;;;;;;20993779;28;20044;-77
2021/06/28 17:23:39;;;;;;;2.20;1.92;;;18.00;99.90;;;;;;20998744;28;20043;-75
2021/06/28 17:33:40;;;;;;;5.90;2.63;;;18.00;99.90;;;;;;21009119;28;20039;-78
2021/06/28 17:43:43;;;;;;;2.60;2.00;;;18.10;99.90;;;;;;21011101;28;20090;-77
2021/06/28 17:53:47;;;;;;;3.17;2.50;;;18.00;99.90;;;;;;20984658;28;20040;-78
2021/06/28 18:03:49;;;;;;;5.80;3.53;;;17.80;99.90;;;;;;20994990;28;20040;-79
2021/06/28 18:13:52;;;;;;;6.00;4.00;;;17.50;99.90;;;;;;21000680;28;20061;-80
2021/06/28 18:23:56;;;;;;;5.03;3.58;;;17.40;99.90;;;;;;20999023;28;20510;-78
2021/06/28 18:33:57;;;;;;;7.03;4.00;;;17.30;99.90;;;;;;20972926;28;20494;-78
2021/06/28 18:43:58;;;;;;;6.30;3.30;;;17.10;99.90;;;;;;21023506;22;20049;-78
2021/06/28 18:53:59;;;;;;;4.43;3.13;;;17.20;99.90;;;;;;20984791;28;20032;-78
2021/06/28 19:04:00;;;;;;;9.67;3.47;;;17.30;99.90;;;;;;21066879;28;20035;-80
2021/06/28 19:14:10;;;;;;;5.40;3.50;;;17.20;99.90;;;;;;21049535;28;20390;-78
2021/06/28 19:24:24;;;;;;;3.40;2.50;;;17.20;99.90;;;;;;20985535;28;20071;-80
2021/06/28 19:34:27;;;;;;;4.97;2.20;;;17.40;99.90;;;;;;20983886;28;20037;-79
2021/06/28 19:44:31;;;;;;;5.97;3.30;;;17.50;99.90;;;;;;20983117;28;20072;-79
2021/06/28 19:54:32;;;;;;;7.13;3.08;;;17.60;99.90;;;;;;20954734;28;20071;-80
2021/06/28 20:04:34;;;;;;;4.75;2.58;;;17.50;99.90;;;;;;20969410;28;20029;-79
2021/06/28 20:14:35;;;;;;;3.43;2.77;;;17.50;99.90;;;;;;21000210;28;20080;-79
2021/06/28 20:24:41;;;;;;;5.50;3.57;;;17.30;99.90;;;;;;20989821;28;20039;-78
2021/06/28 20:34:43;;;;;;;7.35;3.15;;;17.20;99.90;;;;;;20990900;28;20397;-78
2021/06/28 20:44:53;;;;;;;5.55;3.40;;;17.30;99.90;;;;;;20965037;28;20036;-78
2021/06/28 20:54:53;;;;;;;9.02;3.90;;;17.20;99.90;;;;;;20987885;28;20032;-78
2021/06/28 21:04:54;;;;;;;9.60;3.00;;;17.00;99.90;;;;;;20987310;28;20028;-78
2021/06/28 21:14:56;;;;;;;7.83;4.57;;;17.10;99.90;;;;;;20969892;28;20119;-77
2021/06/28 21:24:57;;;;;;;7.60;4.40;;;16.80;99.90;;;;;;20980461;28;20090;-80
2021/06/28 21:34:58;;;;;;;4.93;4.43;;;16.80;99.90;;;;;;21001120;28;20294;-78
2021/06/28 21:44:59;;;;;;;6.13;4.80;;;16.70;99.90;;;;;;20966970;28;20032;-78
2021/06/28 21:55:03;;;;;;;6.03;4.53;;;16.80;99.90;;;;;;20979167;28;20499;-79
2021/06/28 22:05:05;;;;;;;7.53;4.20;;;16.70;99.90;;;;;;20999403;28;20025;-78
2021/06/28 22:15:13;;;;;;;7.78;4.75;;;16.80;99.90;;;;;;20997654;28;20039;-78
2021/06/28 22:25:16;;;;;;;8.18;5.50;;;16.60;99.90;;;;;;20998901;28;20029;-77
2021/06/28 22:35:23;;;;;;;7.32;4.60;;;16.60;99.90;;;;;;20981345;28;20032;-79
2021/06/28 22:45:24;;;;;;;7.13;4.63;;;16.70;99.90;;;;;;20998765;28;20029;-79
2021/06/28 22:55:25;;;;;;;5.63;4.10;;;16.60;99.90;;;;;;20998444;28;20490;-79
2021/06/28 23:05:26;;;;;;;5.73;4.07;;;16.80;99.90;;;;;;20964892;28;20097;-79
2021/06/28 23:15:27;;;;;;;7.83;5.00;;;16.70;99.90;;;;;;20996833;28;20025;-79
2021/06/28 23:25:29;;;;;;;9.83;5.00;;;16.60;99.90;;;;;;20985932;28;20025;-79
2021/06/28 23:35:30;;;;;;;7.03;4.83;;;16.60;99.90;;;;;;21017677;28;20016;-77
2021/06/28 23:45:47;;;;;;;9.88;6.45;;;16.70;99.90;;;;;;21014439;28;20521;-79
2021/06/28 23:55:52;;;;;;;10.70;7.93;;;16.50;99.90;;;;;;20993091;28;20032;-79
